sensor_id;sensor_type;location;lat;lon;timestamp;P1;durP1;ratioP1;P2;durP2;ratioP2
12689;SDS011;6409;56.294;14.480;2022-07-01T00:01:30;2.40;;;2.00;;
12689;SDS011;6409;56.294;14.480;2022-07-01T00:03:58;2.07;;;1.93;;
12689;SDS011;6409;56.294;14.480;2022-07-01T00:06:25;2.10;;;1.90;;
12689;SDS011;6409;56.294;14.480;2022-07-01T00:08:52;2.23;;;1.90;;
12689;SDS011;6409;56.294;14.480;2022-07-01T00:11:20;3.00;;;1.97;;
12689;SDS011;6409;56.294;14.480;2022-07-01T00:13:47;3.57;;;2.17;;
12689;SDS011;6409;56.294;14.480;2022-07-01T00:16:14;2.13;;;1.97;;
12689;SDS011;6409;56.294;14.480;2022-07-01T00:18:41;2.30;;;1.80;;
12689;SDS011;6409;56.294;14.480;2022-07-01T00:21:09;2.27;;;2.07;;
12689;SDS011;6409;56.294;14.480;2022-07-01T00:23:37;1.97;;;1.83;;
12689;SDS011;6409;56.294;14.480;2022-07-01T00:26:04;2.50;;;2.10;;
12689;SDS011;6409;56.294;14.480;2022-07-01T00:28:31;2.07;;;1.97;;
12689;SDS011;6409;56.294;14.480;2022-07-01T00:30:58;2.40;;;2.00;;
12689;SDS011;6409;56.294;14.480;2022-07-01T00:33:24;2.00;;;1.90;;
12689;SDS011;6409;56.294;14.480;2022-07-01T00:35:51;2.33;;;1.77;;
12689;SDS011;6409;56.294;14.480;2022-07-01T00:38:21;2.20;;;2.00;;
12689;SDS011;6409;56.294;14.480;2022-07-01T00:40:51;2.60;;;2.20;;
12689;SDS011;6409;56.294;14.480;2022-07-01T00:43:18;2.30;;;2.10;;
12689;SDS011;6409;56.294;14.480;2022-07-01T00:45:48;2.20;;;2.00;;
12689;SDS011;6409;56.294;14.480;2022-07-01T00:48:15;5.17;;;2.03;;
12689;SDS011;6409;56.294;14.480;2022-07-01T00:50:42;2.27;;;2.07;;
12689;SDS011;6409;56.294;14.480;2022-07-01T00:53:09;2.80;;;1.90;;
12689;SDS011;6409;56.294;14.480;2022-07-01T00:55:38;2.23;;;2.03;;
12689;SDS011;6409;56.294;14.480;2022-07-01T00:58:05;2.33;;;2.13;;
12689;SDS011;6409;56.294;14.480;2022-07-01T01:00:32;2.93;;;2.00;;
12689;SDS011;6409;56.294;14.480;2022-07-01T01:02:59;2.23;;;1.90;;
12689;SDS011;6409;56.294;14.480;2022-07-01T01:05:26;5.07;;;2.13;;
12689;SDS011;6409;56.294;14.480;2022-07-01T01:07:53;1.87;;;1.73;;
12689;SDS011;6409;56.294;14.480;2022-07-01T01:10:20;2.37;;;2.17;;
12689;SDS011;6409;56.294;14.480;2022-07-01T01:12:50;4.37;;;2.10;;
12689;SDS011;6409;56.294;14.480;2022-07-01T01:15:17;2.10;;;1.90;;
12689;SDS011;6409;56.294;14.480;2022-07-01T01:17:44;1.90;;;1.80;;
12689;SDS011;6409;56.294;14.480;2022-07-01T01:20:14;7.57;;;1.87;;
12689;SDS011;6409;56.294;14.480;2022-07-01T01:22:43;7.13;;;2.40;;
12689;SDS011;6409;56.294;14.480;2022-07-01T01:25:10;2.10;;;1.90;;
12689;SDS011;6409;56.294;14.480;2022-07-01T01:27:37;2.00;;;1.90;;
12689;SDS011;6409;56.294;14.480;2022-07-01T01:30:04;2.10;;;1.90;;
12689;SDS011;6409;56.294;14.480;2022-07-01T01:32:33;2.20;;;2.00;;
12689;SDS011;6409;56.294;14.480;2022-07-01T01:35:00;1.90;;;1.80;;
12689;SDS011;6409;56.294;14.480;2022-07-01T01:37:27;2.23;;;2.03;;
12689;SDS011;6409;56.294;14.480;2022-07-01T01:39:55;2.23;;;2.03;;
12689;SDS011;6409;56.294;14.480;2022-07-01T01:42:23;2.43;;;2.23;;
12689;SDS011;6409;56.294;14.480;2022-07-01T01:44:50;3.43;;;2.27;;
12689;SDS011;6409;56.294;14.480;2022-07-01T01:47:17;2.20;;;2.00;;
12689;SDS011;6409;56.294;14.480;2022-07-01T01:49:44;2.60;;;2.40;;
12689;SDS011;6409;56.294;14.480;2022-07-01T01:52:11;3.33;;;2.30;;
12689;SDS011;6409;56.294;14.480;2022-07-01T01:54:38;2.27;;;2.00;;
12689;SDS011;6409;56.294;14.480;2022-07-01T01:57:06;2.00;;;1.90;;
12689;SDS011;6409;56.294;14.480;2022-07-01T01:59:33;2.10;;;1.83;;
12689;SDS011;6409;56.294;14.480;2022-07-01T02:02:00;5.37;;;2.03;;
12689;SDS011;6409;56.294;14.480;2022-07-01T02:04:27;3.63;;;2.30;;
12689;SDS011;6409;56.294;14.480;2022-07-01T02:06:54;2.20;;;2.00;;
12689;SDS011;6409;56.294;14.480;2022-07-01T02:09:21;2.70;;;2.30;;
12689;SDS011;6409;56.294;14.480;2022-07-01T02:11:48;3.40;;;2.20;;
12689;SDS011;6409;56.294;14.480;2022-07-01T02:14:16;2.33;;;2.13;;
12689;SDS011;6409;56.294;14.480;2022-07-01T02:16:43;3.00;;;1.97;;
12689;SDS011;6409;56.294;14.480;2022-07-01T02:19:10;2.40;;;2.10;;
12689;SDS011;6409;56.294;14.480;2022-07-01T02:21:37;3.57;;;2.20;;
12689;SDS011;6409;56.294;14.480;2022-07-01T02:24:04;3.03;;;2.10;;
12689;SDS011;6409;56.294;14.480;2022-07-01T02:26:31;2.50;;;2.30;;
12689;SDS011;6409;56.294;14.480;2022-07-01T02:28:58;3.37;;;2.80;;
12689;SDS011;6409;56.294;14.480;2022-07-01T02:31:26;3.03;;;2.53;;
12689;SDS011;6409;56.294;14.480;2022-07-01T02:33:53;2.43;;;2.20;;
12689;SDS011;6409;56.294;14.480;2022-07-01T02:36:20;2.27;;;2.00;;
12689;SDS011;6409;56.294;14.480;2022-07-01T02:38:47;2.30;;;2.10;;
12689;SDS011;6409;56.294;14.480;2022-07-01T02:41:14;4.97;;;2.27;;
12689;SDS011;6409;56.294;14.480;2022-07-01T02:43:41;3.13;;;2.43;;
12689;SDS011;6409;56.294;14.480;2022-07-01T02:46:07;2.70;;;2.30;;
12689;SDS011;6409;56.294;14.480;2022-07-01T02:48:36;1.90;;;1.80;;
12689;SDS011;6409;56.294;14.480;2022-07-01T02:51:02;2.53;;;2.10;;
12689;SDS011;6409;56.294;14.480;2022-07-01T02:53:30;2.07;;;1.87;;
12689;SDS011;6409;56.294;14.480;2022-07-01T02:55:56;2.33;;;2.13;;
12689;SDS011;6409;56.294;14.480;2022-07-01T02:58:24;5.53;;;2.50;;
12689;SDS011;6409;56.294;14.480;2022-07-01T03:00:51;2.53;;;2.27;;
12689;SDS011;6409;56.294;14.480;2022-07-01T03:03:19;3.10;;;2.27;;
12689;SDS011;6409;56.294;14.480;2022-07-01T03:05:47;2.77;;;2.27;;
12689;SDS011;6409;56.294;14.480;2022-07-01T03:08:14;2.90;;;2.60;;
12689;SDS011;6409;56.294;14.480;2022-07-01T03:10:41;3.43;;;2.37;;
12689;SDS011;6409;56.294;14.480;2022-07-01T03:13:08;2.97;;;2.30;;
12689;SDS011;6409;56.294;14.480;2022-07-01T03:15:35;2.77;;;2.30;;
12689;SDS011;6409;56.294;14.480;2022-07-01T03:18:02;3.20;;;2.40;;
12689;SDS011;6409;56.294;14.480;2022-07-01T03:20:28;2.57;;;2.37;;
12689;SDS011;6409;56.294;14.480;2022-07-01T03:22:57;3.27;;;2.47;;
12689;SDS011;6409;56.294;14.480;2022-07-01T03:25:24;4.43;;;2.80;;
12689;SDS011;6409;56.294;14.480;2022-07-01T03:27:51;5.97;;;2.30;;
12689;SDS011;6409;56.294;14.480;2022-07-01T03:30:18;3.97;;;2.37;;
12689;SDS011;6409;56.294;14.480;2022-07-01T03:32:45;2.93;;;2.20;;
12689;SDS011;6409;56.294;14.480;2022-07-01T03:35:12;3.53;;;2.47;;
12689;SDS011;6409;56.294;14.480;2022-07-01T03:37:58;2.27;;;2.07;;
12689;SDS011;6409;56.294;14.480;2022-07-01T03:40:25;2.27;;;2.13;;
12689;SDS011;6409;56.294;14.480;2022-07-01T03:42:52;2.87;;;2.43;;
12689;SDS011;6409;56.294;14.480;2022-07-01T03:45:19;5.27;;;2.30;;
12689;SDS011;6409;56.294;14.480;2022-07-01T03:47:46;3.47;;;2.43;;
12689;SDS011;6409;56.294;14.480;2022-07-01T03:50:13;2.60;;;2.20;;
12689;SDS011;6409;56.294;14.480;2022-07-01T03:52:41;4.27;;;2.57;;
12689;SDS011;6409;56.294;14.480;2022-07-01T03:55:09;26.13;;;2.90;;
12689;SDS011;6409;56.294;14.480;2022-07-01T03:57:36;3.40;;;2.60;;
12689;SDS011;6409;56.294;14.480;2022-07-01T04:00:03;2.40;;;2.20;;
12689;SDS011;6409;56.294;14.480;2022-07-01T04:02:31;2.90;;;2.70;;
12689;SDS011;6409;56.294;14.480;2022-07-01T04:04:58;5.40;;;2.30;;
12689;SDS011;6409;56.294;14.480;2022-07-01T04:07:25;2.83;;;2.57;;
12689;SDS011;6409;56.294;14.480;2022-07-01T04:09:52;3.20;;;2.27;;
12689;SDS011;6409;56.294;14.480;2022-07-01T04:12:20;2.60;;;2.40;;
12689;SDS011;6409;56.294;14.480;2022-07-01T04:14:48;2.53;;;2.33;;
12689;SDS011;6409;56.294;14.480;2022-07-01T04:17:15;3.30;;;2.40;;
12689;SDS011;6409;56.294;14.480;2022-07-01T04:19:42;2.43;;;2.23;;
12689;SDS011;6409;56.294;14.480;2022-07-01T04:22:08;5.00;;;2.57;;
12689;SDS011;6409;56.294;14.480;2022-07-01T04:24:53;2.70;;;2.50;;
12689;SDS011;6409;56.294;14.480;2022-07-01T04:27:21;3.00;;;2.30;;
12689;SDS011;6409;56.294;14.480;2022-07-01T04:29:48;3.00;;;2.60;;
12689;SDS011;6409;56.294;14.480;2022-07-01T04:32:14;4.93;;;2.60;;
12689;SDS011;6409;56.294;14.480;2022-07-01T04:34:41;4.97;;;3.00;;
12689;SDS011;6409;56.294;14.480;2022-07-01T04:37:08;6.13;;;2.73;;
12689;SDS011;6409;56.294;14.480;2022-07-01T04:39:35;2.70;;;2.50;;
12689;SDS011;6409;56.294;14.480;2022-07-01T04:42:02;6.13;;;2.80;;
12689;SDS011;6409;56.294;14.480;2022-07-01T04:44:30;5.10;;;2.97;;
12689;SDS011;6409;56.294;14.480;2022-07-01T04:46:58;3.53;;;2.70;;
12689;SDS011;6409;56.294;14.480;2022-07-01T04:49:25;3.23;;;2.60;;
12689;SDS011;6409;56.294;14.480;2022-07-01T04:51:53;4.13;;;3.10;;
12689;SDS011;6409;56.294;14.480;2022-07-01T04:54:20;3.80;;;3.23;;
12689;SDS011;6409;56.294;14.480;2022-07-01T04:56:47;5.33;;;3.47;;
12689;SDS011;6409;56.294;14.480;2022-07-01T04:59:15;3.97;;;2.97;;
12689;SDS011;6409;56.294;14.480;2022-07-01T05:01:43;4.17;;;2.67;;
12689;SDS011;6409;56.294;14.480;2022-07-01T05:04:11;3.10;;;2.80;;
12689;SDS011;6409;56.294;14.480;2022-07-01T05:06:38;4.87;;;2.90;;
12689;SDS011;6409;56.294;14.480;2022-07-01T05:09:05;3.40;;;2.90;;
12689;SDS011;6409;56.294;14.480;2022-07-01T05:11:33;4.10;;;2.90;;
12689;SDS011;6409;56.294;14.480;2022-07-01T05:14:00;8.10;;;2.57;;
12689;SDS011;6409;56.294;14.480;2022-07-01T05:16:27;3.83;;;2.88;;
12689;SDS011;6409;56.294;14.480;2022-07-01T05:18:55;4.95;;;2.80;;
12689;SDS011;6409;56.294;14.480;2022-07-01T05:21:39;4.07;;;3.15;;
12689;SDS011;6409;56.294;14.480;2022-07-01T05:24:25;3.72;;;3.00;;
12689;SDS011;6409;56.294;14.480;2022-07-01T05:26:55;3.45;;;3.13;;
12689;SDS011;6409;56.294;14.480;2022-07-01T05:29:22;4.05;;;3.05;;
12689;SDS011;6409;56.294;14.480;2022-07-01T05:31:49;3.17;;;2.88;;
12689;SDS011;6409;56.294;14.480;2022-07-01T05:34:17;3.92;;;3.47;;
12689;SDS011;6409;56.294;14.480;2022-07-01T05:36:44;3.80;;;3.05;;
12689;SDS011;6409;56.294;14.480;2022-07-01T05:39:11;4.28;;;3.63;;
12689;SDS011;6409;56.294;14.480;2022-07-01T05:41:38;4.38;;;3.47;;
12689;SDS011;6409;56.294;14.480;2022-07-01T05:44:05;5.50;;;3.55;;
12689;SDS011;6409;56.294;14.480;2022-07-01T05:46:32;4.28;;;3.08;;
12689;SDS011;6409;56.294;14.480;2022-07-01T05:48:59;2.80;;;2.60;;
12689;SDS011;6409;56.294;14.480;2022-07-01T05:51:27;3.60;;;3.22;;
12689;SDS011;6409;56.294;14.480;2022-07-01T05:53:54;3.72;;;2.78;;
12689;SDS011;6409;56.294;14.480;2022-07-01T05:56:23;3.10;;;2.83;;
12689;SDS011;6409;56.294;14.480;2022-07-01T05:58:50;3.25;;;2.80;;
12689;SDS011;6409;56.294;14.480;2022-07-01T06:01:17;3.03;;;2.65;;
12689;SDS011;6409;56.294;14.480;2022-07-01T06:03:44;4.25;;;2.85;;
12689;SDS011;6409;56.294;14.480;2022-07-01T06:06:11;2.75;;;2.55;;
12689;SDS011;6409;56.294;14.480;2022-07-01T06:08:39;3.17;;;2.50;;
12689;SDS011;6409;56.294;14.480;2022-07-01T06:11:06;2.63;;;2.42;;
12689;SDS011;6409;56.294;14.480;2022-07-01T06:13:33;2.97;;;2.50;;
12689;SDS011;6409;56.294;14.480;2022-07-01T06:16:00;2.40;;;2.20;;
12689;SDS011;6409;56.294;14.480;2022-07-01T06:18:27;2.88;;;2.63;;
12689;SDS011;6409;56.294;14.480;2022-07-01T06:20:54;2.80;;;2.55;;
12689;SDS011;6409;56.294;14.480;2022-07-01T06:23:21;3.40;;;3.10;;
12689;SDS011;6409;56.294;14.480;2022-07-01T06:25:49;2.35;;;2.15;;
12689;SDS011;6409;56.294;14.480;2022-07-01T06:28:16;3.10;;;2.55;;
12689;SDS011;6409;56.294;14.480;2022-07-01T06:30:44;4.05;;;2.50;;
12689;SDS011;6409;56.294;14.480;2022-07-01T06:33:12;2.60;;;2.38;;
12689;SDS011;6409;56.294;14.480;2022-07-01T06:35:40;2.60;;;2.40;;
12689;SDS011;6409;56.294;14.480;2022-07-01T06:38:07;10.55;;;2.92;;
12689;SDS011;6409;56.294;14.480;2022-07-01T06:40:33;2.42;;;2.22;;
12689;SDS011;6409;56.294;14.480;2022-07-01T06:43:02;5.05;;;2.50;;
12689;SDS011;6409;56.294;14.480;2022-07-01T06:45:29;3.30;;;2.50;;
12689;SDS011;6409;56.294;14.480;2022-07-01T06:47:56;2.28;;;2.10;;
12689;SDS011;6409;56.294;14.480;2022-07-01T06:50:23;2.80;;;2.45;;
12689;SDS011;6409;56.294;14.480;2022-07-01T06:52:50;3.85;;;2.53;;
12689;SDS011;6409;56.294;14.480;2022-07-01T06:55:17;2.60;;;2.40;;
12689;SDS011;6409;56.294;14.480;2022-07-01T06:57:44;2.75;;;2.47;;
12689;SDS011;6409;56.294;14.480;2022-07-01T07:00:13;2.70;;;2.50;;
12689;SDS011;6409;56.294;14.480;2022-07-01T07:02:40;3.22;;;2.78;;
12689;SDS011;6409;56.294;14.480;2022-07-01T07:05:07;3.00;;;2.80;;
12689;SDS011;6409;56.294;14.480;2022-07-01T07:07:35;2.80;;;2.60;;
12689;SDS011;6409;56.294;14.480;2022-07-01T07:10:03;2.92;;;2.70;;
12689;SDS011;6409;56.294;14.480;2022-07-01T07:12:31;3.53;;;3.22;;
12689;SDS011;6409;56.294;14.480;2022-07-01T07:14:58;6.22;;;3.30;;
12689;SDS011;6409;56.294;14.480;2022-07-01T07:17:26;4.05;;;3.20;;
12689;SDS011;6409;56.294;14.480;2022-07-01T07:19:53;3.35;;;3.15;;
12689;SDS011;6409;56.294;14.480;2022-07-01T07:22:21;4.03;;;3.28;;
12689;SDS011;6409;56.294;14.480;2022-07-01T07:24:48;3.35;;;3.05;;
12689;SDS011;6409;56.294;14.480;2022-07-01T07:27:15;2.97;;;2.78;;
12689;SDS011;6409;56.294;14.480;2022-07-01T07:29:42;3.40;;;3.08;;
12689;SDS011;6409;56.294;14.480;2022-07-01T07:32:09;3.78;;;3.38;;
12689;SDS011;6409;56.294;14.480;2022-07-01T07:34:37;3.72;;;3.42;;
12689;SDS011;6409;56.294;14.480;2022-07-01T07:37:04;3.30;;;3.00;;
12689;SDS011;6409;56.294;14.480;2022-07-01T07:39:31;3.92;;;3.50;;
12689;SDS011;6409;56.294;14.480;2022-07-01T07:41:58;3.58;;;3.33;;
12689;SDS011;6409;56.294;14.480;2022-07-01T07:44:25;3.90;;;3.60;;
12689;SDS011;6409;56.294;14.480;2022-07-01T07:46:53;3.72;;;3.40;;
12689;SDS011;6409;56.294;14.480;2022-07-01T07:49:21;3.70;;;3.40;;
12689;SDS011;6409;56.294;14.480;2022-07-01T07:51:50;3.38;;;3.10;;
12689;SDS011;6409;56.294;14.480;2022-07-01T07:54:17;3.83;;;3.50;;
12689;SDS011;6409;56.294;14.480;2022-07-01T07:56:44;5.32;;;3.63;;
12689;SDS011;6409;56.294;14.480;2022-07-01T07:59:11;3.65;;;3.30;;
12689;SDS011;6409;56.294;14.480;2022-07-01T08:01:38;4.22;;;3.83;;
12689;SDS011;6409;56.294;14.480;2022-07-01T08:04:05;5.15;;;3.75;;
12689;SDS011;6409;56.294;14.480;2022-07-01T08:06:32;4.15;;;3.85;;
12689;SDS011;6409;56.294;14.480;2022-07-01T08:09:00;3.90;;;3.60;;
12689;SDS011;6409;56.294;14.480;2022-07-01T08:11:27;4.10;;;3.70;;
12689;SDS011;6409;56.294;14.480;2022-07-01T08:13:54;4.07;;;3.67;;
12689;SDS011;6409;56.294;14.480;2022-07-01T08:16:20;3.80;;;3.50;;
12689;SDS011;6409;56.294;14.480;2022-07-01T08:18:48;3.83;;;3.53;;
12689;SDS011;6409;56.294;14.480;2022-07-01T08:21:14;3.90;;;3.60;;
12689;SDS011;6409;56.294;14.480;2022-07-01T08:23:41;4.40;;;4.00;;
12689;SDS011;6409;56.294;14.480;2022-07-01T08:26:09;4.07;;;3.78;;
12689;SDS011;6409;56.294;14.480;2022-07-01T08:28:38;4.20;;;3.83;;
12689;SDS011;6409;56.294;14.480;2022-07-01T08:31:05;4.65;;;4.25;;
12689;SDS011;6409;56.294;14.480;2022-07-01T08:33:32;4.43;;;4.07;;
12689;SDS011;6409;56.294;14.480;2022-07-01T08:35:59;4.20;;;3.70;;
12689;SDS011;6409;56.294;14.480;2022-07-01T08:38:26;4.43;;;4.03;;
12689;SDS011;6409;56.294;14.480;2022-07-01T08:40:53;4.45;;;4.05;;
12689;SDS011;6409;56.294;14.480;2022-07-01T08:43:22;4.47;;;4.05;;
12689;SDS011;6409;56.294;14.480;2022-07-01T08:45:49;4.68;;;4.15;;
12689;SDS011;6409;56.294;14.480;2022-07-01T08:48:17;4.95;;;4.13;;
12689;SDS011;6409;56.294;14.480;2022-07-01T08:50:50;4.55;;;4.10;;
12689;SDS011;6409;56.294;14.480;2022-07-01T08:53:17;4.47;;;4.05;;
12689;SDS011;6409;56.294;14.480;2022-07-01T08:55:44;5.80;;;4.22;;
12689;SDS011;6409;56.294;14.480;2022-07-01T08:58:30;4.60;;;3.95;;
12689;SDS011;6409;56.294;14.480;2022-07-01T09:01:13;8.88;;;4.68;;
12689;SDS011;6409;56.294;14.480;2022-07-01T09:03:41;4.53;;;4.07;;
12689;SDS011;6409;56.294;14.480;2022-07-01T09:06:12;5.72;;;4.20;;
12689;SDS011;6409;56.294;14.480;2022-07-01T09:08:40;4.40;;;4.00;;
12689;SDS011;6409;56.294;14.480;2022-07-01T09:11:11;5.00;;;4.50;;
12689;SDS011;6409;56.294;14.480;2022-07-01T09:13:40;5.00;;;4.50;;
12689;SDS011;6409;56.294;14.480;2022-07-01T09:16:11;4.68;;;4.28;;
12689;SDS011;6409;56.294;14.480;2022-07-01T09:18:38;4.95;;;4.47;;
12689;SDS011;6409;56.294;14.480;2022-07-01T09:21:07;5.40;;;4.90;;
12689;SDS011;6409;56.294;14.480;2022-07-01T09:23:34;5.10;;;4.70;;
12689;SDS011;6409;56.294;14.480;2022-07-01T09:26:01;5.13;;;4.63;;
12689;SDS011;6409;56.294;14.480;2022-07-01T09:28:28;4.95;;;4.45;;
12689;SDS011;6409;56.294;14.480;2022-07-01T09:30:56;5.85;;;4.88;;
12689;SDS011;6409;56.294;14.480;2022-07-01T09:33:25;5.90;;;4.80;;
12689;SDS011;6409;56.294;14.480;2022-07-01T09:35:53;5.15;;;4.63;;
12689;SDS011;6409;56.294;14.480;2022-07-01T09:38:22;4.70;;;4.20;;
12689;SDS011;6409;56.294;14.480;2022-07-01T09:40:53;4.40;;;4.00;;
12689;SDS011;6409;56.294;14.480;2022-07-01T09:43:22;4.13;;;3.83;;
12689;SDS011;6409;56.294;14.480;2022-07-01T09:45:53;5.13;;;4.63;;
12689;SDS011;6409;56.294;14.480;2022-07-01T09:48:23;4.68;;;4.25;;
12689;SDS011;6409;56.294;14.480;2022-07-01T09:50:51;7.30;;;4.35;;
12689;SDS011;6409;56.294;14.480;2022-07-01T09:53:18;4.35;;;3.97;;
12689;SDS011;6409;56.294;14.480;2022-07-01T09:55:45;4.13;;;3.72;;
12689;SDS011;6409;56.294;14.480;2022-07-01T09:58:12;4.22;;;3.83;;
12689;SDS011;6409;56.294;14.480;2022-07-01T10:00:40;5.00;;;3.90;;
12689;SDS011;6409;56.294;14.480;2022-07-01T10:03:07;4.35;;;4.03;;
12689;SDS011;6409;56.294;14.480;2022-07-01T10:05:37;4.28;;;3.97;;
12689;SDS011;6409;56.294;14.480;2022-07-01T10:08:14;4.53;;;4.13;;
12689;SDS011;6409;56.294;14.480;2022-07-01T10:11:00;4.10;;;3.75;;
12689;SDS011;6409;56.294;14.480;2022-07-01T10:13:33;4.63;;;4.22;;
12689;SDS011;6409;56.294;14.480;2022-07-01T10:16:00;4.60;;;4.20;;
12689;SDS011;6409;56.294;14.480;2022-07-01T10:18:28;4.38;;;3.97;;
12689;SDS011;6409;56.294;14.480;2022-07-01T10:20:57;4.22;;;3.92;;
12689;SDS011;6409;56.294;14.480;2022-07-01T10:23:28;4.65;;;4.25;;
12689;SDS011;6409;56.294;14.480;2022-07-01T10:26:02;4.15;;;3.85;;
12689;SDS011;6409;56.294;14.480;2022-07-01T10:28:39;4.10;;;3.80;;
12689;SDS011;6409;56.294;14.480;2022-07-01T10:31:08;4.05;;;3.72;;
12689;SDS011;6409;56.294;14.480;2022-07-01T10:33:41;4.28;;;3.92;;
12689;SDS011;6409;56.294;14.480;2022-07-01T10:36:15;4.28;;;3.88;;
12689;SDS011;6409;56.294;14.480;2022-07-01T10:41:57;5.90;;;4.10;;
12689;SDS011;6409;56.294;14.480;2022-07-01T10:44:29;6.13;;;4.15;;
12689;SDS011;6409;56.294;14.480;2022-07-01T10:47:04;4.20;;;3.80;;
12689;SDS011;6409;56.294;14.480;2022-07-01T10:52:22;4.93;;;4.45;;
12689;SDS011;6409;56.294;14.480;2022-07-01T10:54:50;5.20;;;4.07;;
12689;SDS011;6409;56.294;14.480;2022-07-01T11:03:11;8.23;;;3.58;;
12689;SDS011;6409;56.294;14.480;2022-07-01T11:05:47;8.35;;;4.00;;
12689;SDS011;6409;56.294;14.480;2022-07-01T11:08:17;4.28;;;3.88;;
12689;SDS011;6409;56.294;14.480;2022-07-01T11:10:44;5.03;;;3.83;;
12689;SDS011;6409;56.294;14.480;2022-07-01T11:13:15;3.78;;;3.35;;
12689;SDS011;6409;56.294;14.480;2022-07-01T11:15:42;5.22;;;3.85;;
12689;SDS011;6409;56.294;14.480;2022-07-01T11:18:13;4.45;;;3.75;;
12689;SDS011;6409;56.294;14.480;2022-07-01T11:20:41;4.80;;;4.13;;
12689;SDS011;6409;56.294;14.480;2022-07-01T11:23:08;4.55;;;4.10;;
12689;SDS011;6409;56.294;14.480;2022-07-01T11:25:36;4.15;;;3.75;;
12689;SDS011;6409;56.294;14.480;2022-07-01T11:28:03;4.78;;;3.92;;
12689;SDS011;6409;56.294;14.480;2022-07-01T11:30:30;5.88;;;3.85;;
12689;SDS011;6409;56.294;14.480;2022-07-01T11:32:57;4.13;;;3.40;;
12689;SDS011;6409;56.294;14.480;2022-07-01T11:35:25;4.18;;;3.80;;
12689;SDS011;6409;56.294;14.480;2022-07-01T11:38:11;3.97;;;3.67;;
12689;SDS011;6409;56.294;14.480;2022-07-01T11:40:57;4.10;;;3.75;;
12689;SDS011;6409;56.294;14.480;2022-07-01T11:43:26;6.72;;;4.03;;
12689;SDS011;6409;56.294;14.480;2022-07-01T11:45:54;4.15;;;3.85;;
12689;SDS011;6409;56.294;14.480;2022-07-01T11:48:34;7.57;;;3.83;;
12689;SDS011;6409;56.294;14.480;2022-07-01T11:51:05;7.30;;;4.40;;
12689;SDS011;6409;56.294;14.480;2022-07-01T11:53:38;4.72;;;4.32;;
12689;SDS011;6409;56.294;14.480;2022-07-01T11:56:07;4.32;;;3.92;;
12689;SDS011;6409;56.294;14.480;2022-07-01T11:58:41;4.35;;;4.05;;
12689;SDS011;6409;56.294;14.480;2022-07-01T12:01:21;4.45;;;4.05;;
12689;SDS011;6409;56.294;14.480;2022-07-01T12:03:50;4.40;;;4.00;;
12689;SDS011;6409;56.294;14.480;2022-07-01T12:06:17;4.50;;;3.72;;
12689;SDS011;6409;56.294;14.480;2022-07-01T12:08:45;4.65;;;4.07;;
12689;SDS011;6409;56.294;14.480;2022-07-01T12:11:15;4.22;;;3.83;;
12689;SDS011;6409;56.294;14.480;2022-07-01T12:13:43;6.95;;;4.35;;
12689;SDS011;6409;56.294;14.480;2022-07-01T12:16:11;5.10;;;4.05;;
12689;SDS011;6409;56.294;14.480;2022-07-01T12:18:38;3.95;;;3.63;;
12689;SDS011;6409;56.294;14.480;2022-07-01T12:21:05;4.00;;;3.70;;
12689;SDS011;6409;56.294;14.480;2022-07-01T12:23:33;6.82;;;4.07;;
12689;SDS011;6409;56.294;14.480;2022-07-01T12:26:03;5.82;;;4.07;;
12689;SDS011;6409;56.294;14.480;2022-07-01T12:28:33;4.22;;;3.63;;
12689;SDS011;6409;56.294;14.480;2022-07-01T12:31:05;4.38;;;3.83;;
12689;SDS011;6409;56.294;14.480;2022-07-01T12:33:36;4.40;;;4.00;;
12689;SDS011;6409;56.294;14.480;2022-07-01T12:36:04;7.32;;;4.38;;
12689;SDS011;6409;56.294;14.480;2022-07-01T12:38:32;4.20;;;3.80;;
12689;SDS011;6409;56.294;14.480;2022-07-01T12:40:59;4.68;;;4.10;;
12689;SDS011;6409;56.294;14.480;2022-07-01T12:43:27;5.55;;;4.15;;
12689;SDS011;6409;56.294;14.480;2022-07-01T12:45:58;9.15;;;4.38;;
12689;SDS011;6409;56.294;14.480;2022-07-01T12:48:25;4.40;;;4.00;;
12689;SDS011;6409;56.294;14.480;2022-07-01T12:50:53;6.47;;;4.95;;
12689;SDS011;6409;56.294;14.480;2022-07-01T12:53:21;6.00;;;4.60;;
12689;SDS011;6409;56.294;14.480;2022-07-01T12:55:49;7.88;;;4.68;;
12689;SDS011;6409;56.294;14.480;2022-07-01T12:58:17;4.80;;;4.30;;
12689;SDS011;6409;56.294;14.480;2022-07-01T13:00:46;5.03;;;4.53;;
12689;SDS011;6409;56.294;14.480;2022-07-01T13:03:17;4.43;;;3.78;;
12689;SDS011;6409;56.294;14.480;2022-07-01T13:05:45;4.55;;;4.15;;
12689;SDS011;6409;56.294;14.480;2022-07-01T13:08:12;4.93;;;4.40;;
12689;SDS011;6409;56.294;14.480;2022-07-01T13:10:39;4.45;;;4.05;;
12689;SDS011;6409;56.294;14.480;2022-07-01T13:13:07;8.65;;;4.25;;
12689;SDS011;6409;56.294;14.480;2022-07-01T13:15:35;6.93;;;4.25;;
12689;SDS011;6409;56.294;14.480;2022-07-01T13:18:02;6.05;;;4.20;;
12689;SDS011;6409;56.294;14.480;2022-07-01T13:20:31;4.63;;;4.18;;
12689;SDS011;6409;56.294;14.480;2022-07-01T13:22:58;4.78;;;4.35;;
12689;SDS011;6409;56.294;14.480;2022-07-01T13:25:25;6.63;;;4.13;;
12689;SDS011;6409;56.294;14.480;2022-07-01T13:27:53;4.32;;;3.63;;
12689;SDS011;6409;56.294;14.480;2022-07-01T13:30:20;4.85;;;3.85;;
12689;SDS011;6409;56.294;14.480;2022-07-01T13:32:47;6.50;;;4.18;;
12689;SDS011;6409;56.294;14.480;2022-07-01T13:35:17;4.45;;;3.95;;
12689;SDS011;6409;56.294;14.480;2022-07-01T13:37:45;5.43;;;4.50;;
12689;SDS011;6409;56.294;14.480;2022-07-01T13:40:12;4.07;;;3.67;;
12689;SDS011;6409;56.294;14.480;2022-07-01T13:42:39;4.65;;;4.18;;
12689;SDS011;6409;56.294;14.480;2022-07-01T13:45:06;4.38;;;3.97;;
12689;SDS011;6409;56.294;14.480;2022-07-01T13:47:34;4.30;;;3.90;;
12689;SDS011;6409;56.294;14.480;2022-07-01T13:50:01;5.30;;;4.43;;
12689;SDS011;6409;56.294;14.480;2022-07-01T13:52:28;8.95;;;4.13;;
12689;SDS011;6409;56.294;14.480;2022-07-01T13:54:56;4.75;;;4.30;;
12689;SDS011;6409;56.294;14.480;2022-07-01T13:57:23;4.25;;;3.85;;
12689;SDS011;6409;56.294;14.480;2022-07-01T13:59:50;5.15;;;3.88;;
12689;SDS011;6409;56.294;14.480;2022-07-01T14:02:18;6.18;;;4.00;;
12689;SDS011;6409;56.294;14.480;2022-07-01T14:04:45;5.95;;;4.03;;
12689;SDS011;6409;56.294;14.480;2022-07-01T14:07:12;4.80;;;4.03;;
12689;SDS011;6409;56.294;14.480;2022-07-01T14:09:39;6.13;;;3.95;;
12689;SDS011;6409;56.294;14.480;2022-07-01T14:12:10;5.07;;;4.57;;
12689;SDS011;6409;56.294;14.480;2022-07-01T14:14:37;4.40;;;4.00;;
12689;SDS011;6409;56.294;14.480;2022-07-01T14:17:04;4.93;;;4.22;;
12689;SDS011;6409;56.294;14.480;2022-07-01T14:19:30;6.35;;;4.32;;
12689;SDS011;6409;56.294;14.480;2022-07-01T14:21:58;4.65;;;3.88;;
12689;SDS011;6409;56.294;14.480;2022-07-01T14:24:25;4.45;;;4.03;;
12689;SDS011;6409;56.294;14.480;2022-07-01T14:26:52;4.35;;;3.92;;
12689;SDS011;6409;56.294;14.480;2022-07-01T14:29:21;4.03;;;3.63;;
12689;SDS011;6409;56.294;14.480;2022-07-01T14:31:48;4.45;;;4.05;;
12689;SDS011;6409;56.294;14.480;2022-07-01T14:34:14;9.77;;;4.18;;
12689;SDS011;6409;56.294;14.480;2022-07-01T14:36:41;3.92;;;3.60;;
12689;SDS011;6409;56.294;14.480;2022-07-01T14:39:08;5.60;;;4.50;;
12689;SDS011;6409;56.294;14.480;2022-07-01T14:41:35;4.18;;;3.75;;
12689;SDS011;6409;56.294;14.480;2022-07-01T14:44:02;5.38;;;4.00;;
12689;SDS011;6409;56.294;14.480;2022-07-01T14:46:31;7.13;;;4.05;;
12689;SDS011;6409;56.294;14.480;2022-07-01T14:48:58;6.97;;;4.10;;
12689;SDS011;6409;56.294;14.480;2022-07-01T14:51:24;4.18;;;3.78;;
12689;SDS011;6409;56.294;14.480;2022-07-01T14:53:51;4.65;;;4.00;;
12689;SDS011;6409;56.294;14.480;2022-07-01T14:56:18;4.65;;;4.10;;
12689;SDS011;6409;56.294;14.480;2022-07-01T14:58:45;4.88;;;4.18;;
12689;SDS011;6409;56.294;14.480;2022-07-01T15:01:12;6.40;;;3.92;;
12689;SDS011;6409;56.294;14.480;2022-07-01T15:03:41;4.88;;;3.97;;
12689;SDS011;6409;56.294;14.480;2022-07-01T15:06:08;3.88;;;3.53;;